»·PEaware :: N6182G KSNA-KAVX

N6182G :: KSNA-KAVX

FLIGHT INFORMATION

Flight Status: Arrived
Operator: Privately registered:
United States
More flights under this callsign
Pilot: Paul A. (20189)
Aircraft: CESSNA 182 SKYLANE
(C182)
More flights by this aircraft type
Origin: KSNA John Wayne-Orange Co
United States
Destination: KAVX Catalina
United States
More flights between these airports :: More routes between these airports
Route: SLI V21 SXC
File this flight plan on PilotEdge
Remarks: I7
Altitude:
(Current/Filed)
4,000ft
Speed:
(Current/Filed)
120kts
Departed: 28-Sep-18 06:18 PM
Arrived: 28-Sep-18 06:44 PM
Distance/Time
Traveled:
32nm/0:26
Distance/Time
To Go:
Arrived

Flight Plot

Page will automatically refresh every two minutes.


Map Options




Map Legend


Flown Route
Filed Route
Departure Airport
Arrival Airport
Navaid (VOR, NDB)
Fix

Horizontal Profiles

Position Reports

Time Latitude Longitude Heading Altitude Ground
Speed
28-Sep-18 17:41 33.674547 -117.863587 257 59ft 0kts
28-Sep-18 17:42 33.674546 -117.863589 257 59ft 0kts
28-Sep-18 17:43 33.674546 -117.863590 257 59ft 0kts
28-Sep-18 17:44 33.674546 -117.863592 257 59ft 0kts
28-Sep-18 17:45 33.674546 -117.863593 257 59ft 0kts
28-Sep-18 17:46 33.674545 -117.863595 257 59ft 0kts
28-Sep-18 17:47 33.674545 -117.863596 257 59ft 0kts
28-Sep-18 17:48 33.674545 -117.863597 257 59ft 0kts
28-Sep-18 17:49 33.674545 -117.863599 257 59ft 0kts
28-Sep-18 17:50 33.674544 -117.863600 257 59ft 0kts
28-Sep-18 17:51 33.674544 -117.863602 257 59ft 0kts
28-Sep-18 17:52 33.674544 -117.863603 257 59ft 0kts
28-Sep-18 17:53 33.674544 -117.863604 257 59ft 0kts
28-Sep-18 17:54 33.669924 -117.868773 257 59ft 0kts
28-Sep-18 17:55 33.669924 -117.868774 257 59ft 0kts
28-Sep-18 17:56 33.669923 -117.868775 257 59ft 0kts
28-Sep-18 17:57 33.669923 -117.868777 257 59ft 0kts
28-Sep-18 17:58 33.669923 -117.868778 257 59ft 0kts
28-Sep-18 17:59 33.669923 -117.868780 257 59ft 0kts
28-Sep-18 18:00 33.669923 -117.868781 257 59ft 0kts
28-Sep-18 18:01 33.669922 -117.868782 257 59ft 0kts
28-Sep-18 18:02 33.669922 -117.868784 257 59ft 0kts
28-Sep-18 18:03 33.669922 -117.868785 257 59ft 0kts
28-Sep-18 18:04 33.669922 -117.868786 257 59ft 0kts
28-Sep-18 18:05 33.669921 -117.868788 257 59ft 0kts
28-Sep-18 18:06 33.669921 -117.868789 257 59ft 0kts
28-Sep-18 18:07 33.669921 -117.868790 257 59ft 0kts
28-Sep-18 18:08 33.669921 -117.868792 257 59ft 0kts
28-Sep-18 18:09 33.669920 -117.868793 257 59ft 0kts
28-Sep-18 18:10 33.669920 -117.868794 257 59ft 0kts
28-Sep-18 18:11 33.669920 -117.868796 257 59ft 0kts
28-Sep-18 18:12 33.669920 -117.868797 257 59ft 0kts
28-Sep-18 18:13 33.669919 -117.868798 257 59ft 0kts
28-Sep-18 18:14 33.670983 -117.868979 31 59ft 6kts
28-Sep-18 18:15 33.673523 -117.866923 347 59ft 9kts
28-Sep-18 18:16 33.676759 -117.865429 27 59ft 13kts
28-Sep-18 18:17 33.679953 -117.863680 293 59ft 0kts
28-Sep-18 18:18 33.679954 -117.863682 293 59ft 0kts
28-Sep-18 18:19 33.679954 -117.863683 293 59ft 0kts
28-Sep-18 18:20 33.678770 -117.865028 208 59ft 51kts
28-Sep-18 18:21 33.662257 -117.883913 232 946ft 99kts
28-Sep-18 18:22 33.645214 -117.910896 232 1950ft 102kts
28-Sep-18 18:23 33.628913 -117.940038 238 2930ft 112kts
28-Sep-18 18:24 33.612097 -117.972668 237 3949ft 117kts
28-Sep-18 18:25 33.591497 -118.011959 237 3979ft 133kts
28-Sep-18 18:26 33.574444 -118.044300 237 4015ft 120kts
28-Sep-18 18:27 33.554904 -118.081311 237 3998ft 133kts
28-Sep-18 18:28 33.535252 -118.118504 237 3998ft 130kts
28-Sep-18 18:29 33.515820 -118.155211 237 3999ft 130kts
28-Sep-18 18:30 33.496729 -118.191247 237 3994ft 120kts
28-Sep-18 18:31 33.479013 -118.224617 237 4013ft 124kts
28-Sep-18 18:32 33.459874 -118.260677 237 4003ft 130kts
28-Sep-18 18:33 33.440919 -118.296361 237 3992ft 123kts
28-Sep-18 18:34 33.422552 -118.330882 237 3996ft 121kts
28-Sep-18 18:35 33.404620 -118.364557 237 3999ft 119kts
28-Sep-18 18:36 33.389079 -118.398879 269 4002ft 118kts
28-Sep-18 18:37 33.414126 -118.414239 7 3743ft 119kts
28-Sep-18 18:38 33.446975 -118.409319 7 3397ft 112kts
28-Sep-18 18:39 33.479920 -118.404494 7 3408ft 126kts
28-Sep-18 18:40 33.508885 -118.418902 315 3394ft 117kts
28-Sep-18 18:41 33.531548 -118.413251 100 3269ft 129kts
28-Sep-18 18:42 33.504413 -118.401456 183 2676ft 130kts
28-Sep-18 18:43 33.470351 -118.405912 187 2321ft 121kts
28-Sep-18 18:44 33.438486 -118.404580 171 2638ft 87kts
28-Sep-18 18:45 33.416092 -118.400758 198 2249ft 76kts
28-Sep-18 18:46 33.403817 -118.417716 235 1605ft 22kts
28-Sep-18 18:47 33.402930 -118.418580 54 1605ft 9kts
28-Sep-18 18:48 33.403559 -118.416378 140 1605ft 8kts
28-Sep-18 18:49 33.403384 -118.415610 93 1605ft 0kts

Navigation Log

Ident Type
Flight plan parsing failed, navigation log unavailable